Pays
Station

 

Conditions  météo  pour  Crotone  -  Italie    Italie

  
9 °C
    
 
 

METAR pour Crotone :

LIBC 211850Z 18006KT 9999 FEW015 09/09 Q1011

 

Voici le bulletin pour Crotone - Italie.
 
Le bulletin a été fait il y a 3 heures et 22 minutes, à 18:50 UTC .
Le vent soufflait à la vitesse de 3.1 mètres par seconde de Sud (180°).
 
La température était de 9 °C, avec un point de rosée à 9 °C.
La pression atmosphérique était de 1011 hPa.
L'humidité relative était de 100.0%.
 
Il y avait 1 à 2/8ème de nébulosité à une hauteur de 457 mètres.
 
La visibilité globale était de supérieure à 10 kilomètres.
 

 
 
 

Pays :   A   B   C   D   E   F   G   H   I   J   K   L   M   N   O   P   Q   R   S   T   U   V   W   Y   Z

 

Partenaires :  Info Météo avec Met'info
Météo Marine avec MeteoMarine.net
Infos Site  |  Infos Légales  |  Crédits  |  Confidentialité
Contactez-nous  |  Ajouter aux favoris
© 2013-2019 METAR - Tous droits réservés